Time;durP1;ratioP1;P1;durP2;ratioP2;P2;SDS_P1;SDS_P2;PMS_P1;PMS_P2;Temp;Humidity;BMP_temperature;BMP_pressure;BME280_temperature;BME280_humidity;BME280_pressure;Samples;Min_cycle;Max_cycle;Signal;HPM_P1;HPM_P2
2023/04/22 00:02:18;;;;;;;9.70;8.70;;;12.00;99.90;;;;;;5033876;28;20544;-82
2023/04/22 00:04:45;;;;;;;11.03;8.47;;;12.00;99.90;;;;;;5035634;28;20448;-82
2023/04/22 00:07:12;;;;;;;8.73;7.20;;;12.00;99.90;;;;;;5032263;28;20448;-83
2023/04/22 00:09:39;;;;;;;10.20;8.20;;;12.00;99.90;;;;;;5027399;28;20547;-83
2023/04/22 00:12:10;;;;;;;10.10;7.53;;;12.00;99.90;;;;;;5027370;28;20427;-83
2023/04/22 00:14:37;;;;;;;9.07;8.17;;;12.00;99.90;;;;;;5025452;28;20475;-82
2023/04/22 00:17:05;;;;;;;10.10;8.67;;;11.70;1.00;;;;;;5026710;28;20490;-82
2023/04/22 00:19:32;;;;;;;10.10;9.07;;;11.90;99.90;;;;;;5031680;28;20478;-82
2023/04/22 00:21:59;;;;;;;9.33;8.03;;;11.80;99.90;;;;;;5031462;28;20448;-83
2023/04/22 00:24:26;;;;;;;9.77;8.77;;;11.80;99.90;;;;;;5034092;28;20468;-83
2023/04/22 00:26:52;;;;;;;8.37;7.50;;;11.80;99.90;;;;;;5032394;28;20448;-83
2023/04/22 00:29:21;;;;;;;12.43;8.60;;;11.90;1.00;;;;;;5029230;28;20522;-83
2023/04/22 00:31:47;;;;;;;8.80;8.00;;;11.70;99.90;;;;;;5030243;28;20478;-82
2023/04/22 00:34:16;;;;;;;9.73;8.23;;;11.70;99.90;;;;;;5030281;28;20512;-83
2023/04/22 00:36:43;;;;;;;10.23;9.03;;;11.60;99.90;;;;;;5029811;28;20475;-83
2023/04/22 00:39:10;;;;;;;8.67;7.83;;;11.60;99.90;;;;;;5029262;28;20446;-83
2023/04/22 00:41:38;;;;;;;12.77;7.80;;;11.60;99.90;;;;;;5029239;28;20452;-83
2023/04/22 00:44:08;;;;;;;10.07;8.70;;;11.60;99.90;;;;;;5031035;28;20512;-82
2023/04/22 00:46:37;;;;;;;12.50;8.20;;;11.50;99.90;;;;;;5031819;28;20487;-83
2023/04/22 00:49:05;;;;;;;11.33;8.63;;;11.50;99.90;;;;;;5027875;28;20477;-83
2023/04/22 00:51:32;;;;;;;9.50;8.50;;;11.50;99.90;;;;;;5025104;28;20552;-83
2023/04/22 00:54:00;;;;;;;9.87;8.37;;;11.40;99.90;;;;;;5026794;28;20429;-83
2023/04/22 00:56:29;;;;;;;10.57;8.50;;;11.40;99.90;;;;;;5030430;28;20463;-83
2023/04/22 00:58:57;;;;;;;8.87;8.07;;;11.40;99.90;;;;;;5029908;28;20879;-83
2023/04/22 01:01:24;;;;;;;9.13;7.87;;;11.40;99.90;;;;;;5028998;28;20475;-83
2023/04/22 01:03:53;;;;;;;10.63;9.60;;;11.40;99.90;;;;;;5031319;28;21044;-82
2023/04/22 01:06:20;;;;;;;9.13;8.13;;;11.40;99.90;;;;;;5022515;28;20535;-83
2023/04/22 01:08:47;;;;;;;9.17;7.90;;;11.30;99.90;;;;;;5022104;28;20463;-83
2023/04/22 01:11:14;;;;;;;10.97;7.80;;;11.30;99.90;;;;;;5020738;28;20446;-83
2023/04/22 01:13:41;;;;;;;8.70;7.80;;;11.30;99.90;;;;;;5020257;28;20488;-83
2023/04/22 01:16:09;;;;;;;10.37;7.70;;;11.30;99.90;;;;;;5019622;28;20434;-82
2023/04/22 01:18:36;;;;;;;9.10;8.20;;;11.30;99.90;;;;;;5024285;28;20480;-82
2023/04/22 01:21:06;;;;;;;8.80;7.77;;;11.30;99.90;;;;;;5030635;28;20418;-83
2023/04/22 01:23:35;;;;;;;10.13;7.90;;;11.20;99.90;;;;;;5020305;28;20454;-83
2023/04/22 01:26:02;;;;;;;13.63;8.07;;;11.20;99.90;;;;;;5020785;28;20454;-83
2023/04/22 01:28:29;;;;;;;8.97;7.47;;;11.20;99.90;;;;;;5019870;28;20478;-82
2023/04/22 01:30:56;;;;;;;13.43;8.00;;;11.10;99.90;;;;;;5028960;28;20422;-82
2023/04/22 01:33:23;;;;;;;8.00;7.30;;;11.10;99.90;;;;;;5038027;28;20436;-81
2023/04/22 01:35:50;;;;;;;8.43;7.23;;;11.10;99.90;;;;;;5038603;28;20449;-82
2023/04/22 01:38:17;;;;;;;9.57;7.23;;;11.10;99.90;;;;;;5023893;28;20517;-82
2023/04/22 01:40:47;;;;;;;15.03;8.67;;;11.10;99.90;;;;;;5025440;28;20470;-83
2023/04/22 01:43:14;;;;;;;8.27;7.47;;;11.00;99.90;;;;;;5039090;28;20543;-81
2023/04/22 01:45:41;;;;;;;14.23;7.57;;;11.00;99.90;;;;;;5039144;28;20419;-80
2023/04/22 01:48:08;;;;;;;13.60;8.30;;;10.30;1.00;;;;;;5039009;28;20428;-81
2023/04/22 01:50:35;;;;;;;12.47;7.67;;;10.90;99.90;;;;;;5039051;28;20471;-82
2023/04/22 01:53:02;;;;;;;11.43;7.30;;;10.90;99.90;;;;;;5039039;28;20426;-81
2023/04/22 01:55:29;;;;;;;9.07;8.10;;;10.80;99.90;;;;;;5034996;28;20447;-82
2023/04/22 01:57:57;;;;;;;7.60;6.90;;;10.80;99.90;;;;;;5021827;28;20482;-83
2023/04/22 02:00:24;;;;;;;10.43;8.67;;;10.80;99.90;;;;;;5021656;28;20506;-83
2023/04/22 02:02:51;;;;;;;9.80;7.83;;;10.80;99.90;;;;;;5020467;28;20550;-83
2023/04/22 02:05:18;;;;;;;9.63;8.53;;;10.80;99.90;;;;;;5019425;28;20419;-83
2023/04/22 02:07:45;;;;;;;11.10;8.33;;;10.70;99.90;;;;;;5025244;28;20870;-83
2023/04/22 02:10:13;;;;;;;12.63;8.30;;;10.70;99.90;;;;;;5034326;28;20508;-81
2023/04/22 02:12:39;;;;;;;9.33;8.43;;;10.70;99.90;;;;;;5037164;28;20414;-83
2023/04/22 02:15:09;;;;;;;8.67;7.73;;;10.60;99.90;;;;;;5019238;28;20531;-84
2023/04/22 02:17:36;;;;;;;9.47;8.50;;;10.60;99.90;;;;;;5018842;28;20837;-83
2023/04/22 02:20:04;;;;;;;10.57;8.90;;;10.50;99.90;;;;;;5019106;28;21031;-83
2023/04/22 02:22:31;;;;;;;9.30;8.40;;;10.50;99.90;;;;;;5018505;28;20459;-83
2023/04/22 02:24:58;;;;;;;10.90;7.83;;;10.70;1.00;;;;;;5017893;28;20465;-83
2023/04/22 02:27:25;;;;;;;9.10;7.83;;;10.50;99.90;;;;;;5021138;28;20423;-83
2023/04/22 02:29:52;;;;;;;14.07;8.73;;;10.60;99.90;;;;;;5017945;28;20495;-83
2023/04/22 02:32:20;;;;;;;8.63;7.70;;;10.60;99.90;;;;;;5018799;28;20527;-83
2023/04/22 02:34:48;;;;;;;10.93;8.20;;;10.40;99.90;;;;;;5026734;28;20454;-83
2023/04/22 02:37:15;;;;;;;8.57;7.57;;;10.40;99.90;;;;;;5023876;28;20539;-83
2023/04/22 02:39:42;;;;;;;12.57;9.30;;;10.40;99.90;;;;;;5022067;28;20859;-83
2023/04/22 02:42:09;;;;;;;11.93;8.13;;;10.40;99.90;;;;;;5021265;28;20471;-83
2023/04/22 02:44:35;;;;;;;11.10;8.50;;;10.30;99.90;;;;;;5020234;28;20486;-83
2023/04/22 02:47:03;;;;;;;9.70;8.80;;;10.40;99.90;;;;;;5021310;28;20452;-83
2023/04/22 02:49:31;;;;;;;14.53;8.83;;;10.30;99.90;;;;;;5038331;28;20486;-82
2023/04/22 02:51:58;;;;;;;12.10;8.97;;;10.30;99.90;;;;;;5034762;28;20423;-83
2023/04/22 02:54:25;;;;;;;10.43;8.63;;;10.20;99.90;;;;;;5019919;28;20523;-83
2023/04/22 02:56:51;;;;;;;10.87;8.40;;;10.10;99.90;;;;;;5028254;28;20475;-82
2023/04/22 02:59:18;;;;;;;9.53;8.40;;;10.10;99.90;;;;;;5036719;28;20438;-82
2023/04/22 03:01:45;;;;;;;13.00;8.80;;;10.10;99.90;;;;;;5030144;28;20448;-82
2023/04/22 03:04:12;;;;;;;9.73;8.67;;;10.00;99.90;;;;;;5026939;28;20526;-83
2023/04/22 03:06:41;;;;;;;9.23;8.23;;;10.00;99.90;;;;;;5019277;28;20822;-83
2023/04/22 03:09:08;;;;;;;10.37;8.63;;;10.00;99.90;;;;;;5018797;28;20468;-83
2023/04/22 03:11:35;;;;;;;9.80;8.40;;;10.00;99.90;;;;;;5018827;28;20438;-83
2023/04/22 03:14:01;;;;;;;10.68;8.15;;;9.90;99.90;;;;;;5020923;28;20525;-83
2023/04/22 03:16:28;;;;;;;13.20;9.70;;;9.90;99.90;;;;;;5022200;28;20225;-83
2023/04/22 03:18:55;;;;;;;11.73;9.60;;;9.80;99.90;;;;;;5024174;28;20499;-82
2023/04/22 03:21:22;;;;;;;11.77;8.77;;;9.80;1.00;;;;;;5038173;28;20503;-82
2023/04/22 03:23:50;;;;;;;14.60;8.70;;;9.80;1.00;;;;;;5031247;28;20547;-83
2023/04/22 03:26:17;;;;;;;10.03;8.50;;;9.80;1.00;;;;;;5023280;28;20483;-83
2023/04/22 03:28:45;;;;;;;11.00;9.00;;;9.70;99.90;;;;;;5022108;28;20498;-83
2023/04/22 03:31:12;;;;;;;8.93;8.03;;;9.70;1.00;;;;;;5021425;28;20449;-83
2023/04/22 03:33:38;;;;;;;11.87;8.87;;;9.70;99.90;;;;;;5020545;28;20452;-83
2023/04/22 03:36:06;;;;;;;9.20;8.30;;;9.70;99.90;;;;;;5031814;28;20425;-82
2023/04/22 03:38:32;;;;;;;8.93;8.20;;;9.60;99.90;;;;;;5037857;28;20471;-82
2023/04/22 03:41:00;;;;;;;10.43;8.73;;;9.60;1.00;;;;;;5037342;28;20482;-82
2023/04/22 03:43:27;;;;;;;9.00;8.13;;;9.60;1.00;;;;;;5030361;28;20454;-83
2023/04/22 03:45:54;;;;;;;11.63;8.60;;;9.60;1.00;;;;;;5025620;28;20539;-83
2023/04/22 03:48:21;;;;;;;12.00;9.23;;;9.60;99.90;;;;;;5023736;28;20475;-83
2023/04/22 03:50:48;;;;;;;10.57;8.40;;;9.50;1.00;;;;;;5022384;28;20546;-83
2023/04/22 03:53:14;;;;;;;10.20;7.90;;;9.50;1.00;;;;;;5022563;28;20512;-83
2023/04/22 03:55:41;;;;;;;12.33;8.83;;;9.50;99.90;;;;;;5021405;28;20540;-83
2023/04/22 03:58:10;;;;;;;12.20;8.57;;;9.80;1.00;;;;;;5023918;28;20851;-83
2023/04/22 04:00:36;;;;;;;10.30;8.27;;;9.50;1.00;;;;;;5024009;28;20535;-83
2023/04/22 04:03:03;;;;;;;11.77;8.07;;;9.50;1.00;;;;;;5022344;28;20911;-83
2023/04/22 04:05:30;;;;;;;13.73;9.50;;;9.50;1.00;;;;;;5026229;28;20519;-83
2023/04/22 04:07:57;;;;;;;9.80;8.80;;;9.50;1.00;;;;;;5031650;28;20791;-83
2023/04/22 04:10:24;;;;;;;11.37;9.23;;;9.40;1.00;;;;;;5029418;28;20523;-84
2023/04/22 04:12:51;;;;;;;13.97;8.93;;;9.50;1.00;;;;;;5022570;28;20452;-84
2023/04/22 04:15:20;;;;;;;10.50;9.37;;;9.50;1.00;;;;;;5021449;28;20811;-83
2023/04/22 04:17:47;;;;;;;14.10;9.17;;;9.50;1.00;;;;;;5021365;28;20430;-83
2023/04/22 04:20:14;;;;;;;9.30;8.20;;;9.50;1.00;;;;;;5021367;28;20479;-83
2023/04/22 04:22:41;;;;;;;10.93;8.60;;;9.50;1.00;;;;;;5021902;28;20511;-84
2023/04/22 04:25:09;;;;;;;9.07;7.80;;;9.50;1.00;;;;;;5020392;28;20463;-83
2023/04/22 04:27:38;;;;;;;10.00;9.00;;;9.50;1.00;;;;;;5022695;28;21074;-83
2023/04/22 04:30:06;;;;;;;9.80;8.80;;;9.50;1.00;;;;;;5031454;28;20448;-83
2023/04/22 04:32:34;;;;;;;10.43;8.93;;;9.50;1.00;;;;;;5033260;28;20418;-83
2023/04/22 04:35:02;;;;;;;10.57;9.47;;;9.50;1.00;;;;;;5032667;28;20436;-83
2023/04/22 04:37:28;;;;;;;10.43;9.20;;;9.50;1.00;;;;;;5032795;28;20524;-83
2023/04/22 04:39:58;;;;;;;10.63;9.13;;;9.50;1.00;;;;;;5032085;28;21004;-83
2023/04/22 04:42:25;;;;;;;9.30;8.03;;;9.50;1.00;;;;;;5029595;28;20446;-82
2023/04/22 04:44:52;;;;;;;17.20;9.77;;;9.50;1.00;;;;;;5027090;28;20457;-82
2023/04/22 04:47:21;;;;;;;10.40;9.30;;;9.40;1.00;;;;;;5023876;28;20452;-83
2023/04/22 04:49:52;;;;;;;11.60;9.80;;;9.50;1.00;;;;;;5022138;28;20466;-83
2023/04/22 04:52:19;;;;;;;11.73;9.20;;;9.50;1.00;;;;;;5021825;28;20428;-83
2023/04/22 04:54:45;;;;;;;15.13;10.30;;;9.50;1.00;;;;;;5020176;28;20541;-83
2023/04/22 04:57:15;;;;;;;12.80;9.87;;;9.50;1.00;;;;;;5019698;28;20456;-83
2023/04/22 04:59:41;;;;;;;11.03;8.80;;;9.50;1.00;;;;;;5020979;28;20498;-83
2023/04/22 05:02:08;;;;;;;10.20;9.10;;;9.50;1.00;;;;;;5021012;28;20512;-83
2023/04/22 05:04:35;;;;;;;13.77;9.17;;;9.50;1.00;;;;;;5024390;28;20541;-82
2023/04/22 05:07:04;;;;;;;11.60;9.50;;;9.50;1.00;;;;;;5022832;28;20485;-82
2023/04/22 05:09:35;;;;;;;11.20;8.97;;;9.50;1.00;;;;;;5039542;28;20452;-81
2023/04/22 05:12:02;;;;;;;15.10;9.70;;;9.50;1.00;;;;;;5039717;28;20391;-80
2023/04/22 05:14:30;;;;;;;13.50;9.20;;;9.50;1.00;;;;;;5039659;28;20418;-80
2023/04/22 05:16:56;;;;;;;12.53;8.93;;;9.60;1.00;;;;;;5039513;28;20414;-83
2023/04/22 05:19:23;;;;;;;11.77;9.93;;;9.60;1.00;;;;;;5039479;28;20422;-81
2023/04/22 05:21:50;;;;;;;9.70;8.00;;;9.70;1.00;;;;;;5038779;28;20833;-80
2023/04/22 05:24:18;;;;;;;15.03;12.17;;;9.70;1.00;;;;;;5034885;28;20447;-82
2023/04/22 05:26:45;;;;;;;12.00;10.17;;;9.70;1.00;;;;;;5034268;28;20515;-82
2023/04/22 05:29:12;;;;;;;15.97;9.83;;;9.70;1.00;;;;;;5028314;28;20504;-83
2023/04/22 05:31:39;;;;;;;10.97;9.87;;;9.80;99.90;;;;;;5033973;28;20516;-82
2023/04/22 05:34:06;;;;;;;11.97;9.43;;;9.80;99.90;;;;;;5038123;28;20414;-82
2023/04/22 05:36:33;;;;;;;15.67;9.97;;;9.70;1.00;;;;;;5036853;28;20399;-82
2023/04/22 05:39:00;;;;;;;11.97;9.90;;;9.90;99.90;;;;;;5035971;28;20492;-83
2023/04/22 05:41:28;;;;;;;11.30;9.60;;;9.80;1.00;;;;;;5038016;28;20463;-81
2023/04/22 05:43:55;;;;;;;13.10;9.50;;;10.00;99.90;;;;;;5032913;28;20496;-83
2023/04/22 05:46:22;;;;;;;11.83;9.27;;;10.10;99.90;;;;;;5024849;28;20456;-83
2023/04/22 05:48:50;;;;;;;11.30;8.83;;;10.10;99.90;;;;;;5021390;28;20485;-83
2023/04/22 05:51:16;;;;;;;10.93;9.40;;;10.20;99.90;;;;;;5021362;28;20474;-84
2023/04/22 05:53:43;;;;;;;10.93;9.80;;;10.30;99.90;;;;;;5026318;28;20520;-86
2023/04/22 05:56:10;;;;;;;14.77;9.70;;;10.40;99.90;;;;;;5033311;28;20423;-85
2023/04/22 05:58:38;;;;;;;11.20;9.43;;;10.50;99.90;;;;;;5028618;28;20453;-85
2023/04/22 06:01:05;;;;;;;11.47;10.27;;;10.60;99.90;;;;;;5025681;28;20486;-85
2023/04/22 06:03:32;;;;;;;11.33;9.60;;;10.70;99.90;;;;;;5031154;28;20868;-85
2023/04/22 06:05:59;;;;;;;13.27;10.20;;;10.80;99.90;;;;;;5034642;28;20535;-87
2023/04/22 06:08:26;;;;;;;16.80;10.03;;;10.90;99.90;;;;;;5038401;28;20456;-84
2023/04/22 06:10:53;;;;;;;11.90;9.77;;;11.00;99.90;;;;;;5024453;28;20458;-85
2023/04/22 06:13:20;;;;;;;13.33;10.13;;;11.10;99.90;;;;;;5020109;28;20479;-85
2023/04/22 06:15:48;;;;;;;13.77;9.77;;;11.30;99.90;;;;;;5019885;28;20432;-85
2023/04/22 06:18:15;;;;;;;12.87;10.30;;;11.40;99.90;;;;;;5018726;28;20468;-85
2023/04/22 06:20:42;;;;;;;16.20;10.00;;;11.50;99.90;;;;;;5027338;28;20479;-83
2023/04/22 06:23:09;;;;;;;14.20;9.20;;;11.60;99.90;;;;;;5019507;28;20916;-84
2023/04/22 06:25:36;;;;;;;11.07;9.90;;;;;;;;;;5018944;28;20570;-84
2023/04/22 06:28:03;;;;;;;15.30;9.70;;;11.90;1.00;;;;;;5021036;28;20468;-83
2023/04/22 06:30:30;;;;;;;10.80;9.80;;;11.90;99.90;;;;;;5019687;28;20444;-83
2023/04/22 06:32:58;;;;;;;12.20;9.10;;;12.00;99.90;;;;;;5018508;28;20454;-84
2023/04/22 06:35:25;;;;;;;10.30;8.97;;;12.10;99.90;;;;;;5017237;28;20444;-84
2023/04/22 06:37:52;;;;;;;13.57;9.10;;;12.20;99.90;;;;;;5018202;28;20452;-84
2023/04/22 06:40:20;;;;;;;11.50;9.20;;;12.30;99.90;;;;;;5023240;28;20467;-83
2023/04/22 06:42:47;;;;;;;10.43;9.33;;;12.40;99.90;;;;;;5028024;28;20479;-84
2023/04/22 06:45:14;;;;;;;11.90;10.10;;;12.50;99.90;;;;;;5024939;28;20557;-84
2023/04/22 06:47:41;;;;;;;13.70;9.90;;;12.60;99.90;;;;;;5022507;28;20455;-83
2023/04/22 06:50:10;;;;;;;11.97;10.20;;;12.60;99.90;;;;;;5025819;28;20506;-83
2023/04/22 06:52:37;;;;;;;15.03;12.20;;;12.70;99.90;;;;;;5025937;28;20472;-85
2023/04/22 06:55:05;;;;;;;19.37;10.73;;;12.70;99.90;;;;;;5024834;28;20491;-84
2023/04/22 06:57:32;;;;;;;13.07;10.90;;;12.80;99.90;;;;;;5025190;28;20426;-84
2023/04/22 06:59:59;;;;;;;12.67;9.20;;;12.90;99.90;;;;;;5023405;28;20811;-85
2023/04/22 07:02:25;;;;;;;13.83;10.80;;;13.10;1.00;;;;;;5022202;28;20523;-83
2023/04/22 07:04:52;;;;;;;11.47;9.33;;;13.00;99.90;;;;;;5022058;28;20497;-85
2023/04/22 07:07:21;;;;;;;11.27;9.97;;;13.20;99.90;;;;;;5024020;28;20444;-84
2023/04/22 07:09:47;;;;;;;11.27;9.50;;;13.30;99.90;;;;;;5021906;28;20468;-83
2023/04/22 07:12:15;;;;;;;10.90;9.77;;;13.40;99.90;;;;;;5024645;28;20550;-83
2023/04/22 07:14:44;;;;;;;11.70;9.97;;;13.50;99.90;;;;;;5026463;28;20439;-83
2023/04/22 07:17:11;;;;;;;12.73;10.40;;;13.60;99.90;;;;;;5029595;28;20890;-83
2023/04/22 07:19:38;;;;;;;10.60;9.50;;;13.80;99.90;;;;;;5033629;28;20481;-83
2023/04/22 07:22:05;;;;;;;12.13;10.20;;;13.80;99.90;;;;;;5038325;28;20511;-82
2023/04/22 07:24:33;;;;;;;12.57;9.70;;;14.00;99.90;;;;;;5028343;28;20575;-83
2023/04/22 07:27:01;;;;;;;11.13;10.03;;;14.00;99.90;;;;;;5024639;28;20459;-83
2023/04/22 07:29:28;;;;;;;13.40;10.50;;;14.10;99.90;;;;;;5023962;28;20470;-85
2023/04/22 07:31:54;;;;;;;11.73;10.40;;;14.10;99.90;;;;;;5031928;28;20502;-84
2023/04/22 07:34:21;;;;;;;13.50;9.90;;;14.20;99.90;;;;;;5041081;28;20444;-83
2023/04/22 07:36:50;;;;;;;12.13;10.43;;;14.30;99.90;;;;;;5041250;28;20451;-82
2023/04/22 07:39:17;;;;;;;14.87;10.50;;;14.50;99.90;;;;;;5035916;28;20473;-84
2023/04/22 07:41:45;;;;;;;13.13;10.53;;;14.50;99.90;;;;;;5025980;28;20448;-83
2023/04/22 07:44:15;;;;;;;12.50;10.27;;;14.70;99.90;;;;;;5022891;28;20472;-84
2023/04/22 07:46:42;;;;;;;11.30;9.37;;;14.70;99.90;;;;;;5027921;28;20850;-86
2023/04/22 07:49:09;;;;;;;12.10;8.07;;;14.70;99.90;;;;;;5027254;28;20476;-85
2023/04/22 07:51:36;;;;;;;11.77;10.53;;;14.90;99.90;;;;;;5022825;28;20486;-83
2023/04/22 07:54:03;;;;;;;14.97;11.37;;;14.90;99.90;;;;;;5022747;28;20535;-83
2023/04/22 07:56:30;;;;;;;12.57;10.70;;;15.10;1.00;;;;;;5022511;28;20520;-83
2023/04/22 07:58:58;;;;;;;11.43;10.23;;;15.10;99.90;;;;;;5027996;28;20544;-83
2023/04/22 08:01:27;;;;;;;10.70;9.30;;;15.10;1.00;;;;;;5024022;28;20959;-83
2023/04/22 08:03:54;;;;;;;11.40;10.30;;;15.20;99.90;;;;;;5024152;28;20451;-83
2023/04/22 08:06:21;;;;;;;11.23;10.13;;;15.40;99.90;;;;;;5025483;28;20558;-84
2023/04/22 08:08:48;;;;;;;10.80;9.80;;;15.40;99.90;;;;;;5027965;28;20478;-84
2023/04/22 08:11:15;;;;;;;10.40;9.43;;;15.60;99.90;;;;;;5027537;28;20455;-84
2023/04/22 08:13:41;;;;;;;10.93;9.83;;;15.70;99.90;;;;;;5023593;28;20900;-83
2023/04/22 08:16:10;;;;;;;9.30;8.40;;;15.80;99.90;;;;;;5023658;28;20524;-83
2023/04/22 08:18:36;;;;;;;12.03;9.93;;;15.90;99.90;;;;;;5025484;28;20468;-83
2023/04/22 08:21:03;;;;;;;10.23;9.17;;;16.10;99.90;;;;;;5032577;28;20452;-83
2023/04/22 08:23:31;;;;;;;11.77;10.40;;;16.20;99.90;;;;;;5038237;28;20467;-83
2023/04/22 08:25:58;;;;;;;10.30;9.07;;;16.40;99.90;;;;;;5033592;28;20483;-83
2023/04/22 08:28:25;;;;;;;11.77;9.40;;;16.40;99.90;;;;;;5023677;28;20559;-83
2023/04/22 08:30:52;;;;;;;12.10;10.90;;;16.50;99.90;;;;;;5024596;28;20492;-83
2023/04/22 08:33:20;;;;;;;13.00;10.10;;;16.60;99.90;;;;;;5021785;28;20452;-82
2023/04/22 08:35:47;;;;;;;11.83;9.87;;;16.70;99.90;;;;;;5033734;28;20420;-82
2023/04/22 08:38:14;;;;;;;10.63;9.27;;;16.70;1.00;;;;;;5039984;28;20463;-80
2023/04/22 08:40:41;;;;;;;10.10;9.20;;;16.80;99.90;;;;;;5039651;28;20515;-80
2023/04/22 08:43:09;;;;;;;9.10;8.30;;;16.90;99.90;;;;;;5039588;28;20503;-81
2023/04/22 08:45:39;;;;;;;12.70;8.93;;;16.90;99.90;;;;;;5039510;28;20519;-80
2023/04/22 08:48:07;;;;;;;8.67;7.93;;;17.00;1.00;;;;;;5032428;28;20485;-79
2023/04/22 08:50:37;;;;;;;13.13;7.90;;;17.10;99.90;;;;;;5027245;28;20526;-83
2023/04/22 08:53:04;;;;;;;12.40;8.30;;;17.20;99.90;;;;;;5024394;28;20423;-84
2023/04/22 08:55:32;;;;;;;9.67;8.67;;;17.30;99.90;;;;;;5024956;28;20460;-84
2023/04/22 08:58:02;;;;;;;10.67;8.87;;;17.30;99.90;;;;;;5028677;28;20512;-84
2023/04/22 09:00:31;;;;;;;11.50;8.47;;;17.30;99.90;;;;;;5032082;28;20436;-83
2023/04/22 09:03:01;;;;;;;9.47;8.50;;;17.30;99.90;;;;;;5030984;28;20452;-85
2023/04/22 09:05:29;;;;;;;9.60;8.60;;;17.30;99.90;;;;;;5034625;28;20515;-85
2023/04/22 09:07:57;;;;;;;9.63;8.23;;;17.40;99.90;;;;;;5029802;28;20471;-85
2023/04/22 09:10:25;;;;;;;8.37;7.67;;;17.40;99.90;;;;;;5037096;28;20436;-85
2023/04/22 09:12:53;;;;;;;9.90;8.97;;;17.40;99.90;;;;;;5036698;28;20459;-85
2023/04/22 09:15:20;;;;;;;10.30;8.20;;;17.60;99.90;;;;;;5034490;28;20539;-86
2023/04/22 09:17:46;;;;;;;11.40;7.73;;;17.60;99.90;;;;;;5031300;28;20520;-84
2023/04/22 09:20:14;;;;;;;9.07;8.17;;;17.60;99.90;;;;;;5038103;28;20479;-85
2023/04/22 09:22:44;;;;;;;9.77;8.50;;;17.80;99.90;;;;;;5039466;28;20448;-83
2023/04/22 09:25:20;;;;;;;9.33;8.43;;;17.80;99.90;;;;;;5030501;28;20511;-85
2023/04/22 09:27:51;;;;;;;10.60;9.37;;;17.90;99.90;;;;;;5023780;28;20439;-85
2023/04/22 09:30:19;;;;;;;13.60;8.10;;;18.00;99.90;;;;;;5023326;28;21006;-85
2023/04/22 09:32:53;;;;;;;9.90;7.43;;;18.00;99.90;;;;;;5037113;28;20444;-84
2023/04/22 09:35:27;;;;;;;8.67;7.87;;;18.10;99.90;;;;;;5039086;28;20424;-83
2023/04/22 09:37:55;;;;;;;14.73;7.73;;;19.10;99.90;;;;;;5032499;28;20474;-84
2023/04/22 09:40:24;;;;;;;8.90;8.00;;;18.10;99.90;;;;;;5022646;28;20491;-86
2023/04/22 09:42:52;;;;;;;10.60;7.50;;;18.20;99.90;;;;;;5022180;28;20440;-86
2023/04/22 09:45:30;;;;;;;8.30;7.50;;;18.30;99.90;;;;;;5023867;28;20484;-86
2023/04/22 09:47:57;;;;;;;12.67;7.33;;;18.40;99.90;;;;;;5023384;28;20515;-86
2023/04/22 09:50:26;;;;;;;8.10;7.03;;;18.40;99.90;;;;;;5022958;28;20455;-87
2023/04/22 09:52:55;;;;;;;8.80;8.00;;;18.50;99.90;;;;;;5025613;28;20443;-85
2023/04/22 09:55:24;;;;;;;10.10;7.13;;;18.60;99.90;;;;;;5024629;28;20464;-85
2023/04/22 09:57:53;;;;;;;9.90;7.67;;;18.60;99.90;;;;;;5023233;28;20448;-83
2023/04/22 10:00:20;;;;;;;12.87;10.70;;;18.60;99.90;;;;;;5022293;28;20826;-83
2023/04/22 10:02:47;;;;;;;9.20;7.50;;;18.60;99.90;;;;;;5021676;28;20452;-83
2023/04/22 10:05:14;;;;;;;8.23;6.90;;;18.80;99.90;;;;;;5022032;28;20495;-83
2023/04/22 10:07:42;;;;;;;12.77;6.87;;;18.90;99.90;;;;;;5022446;28;20431;-83
2023/04/22 10:10:09;;;;;;;9.30;7.40;;;18.90;99.90;;;;;;5021123;28;20930;-84
2023/04/22 10:12:38;;;;;;;10.37;7.80;;;18.90;99.90;;;;;;5023496;28;20451;-84
2023/04/22 10:15:06;;;;;;;9.10;8.20;;;19.00;99.90;;;;;;5021850;28;20965;-81
2023/04/22 10:17:36;;;;;;;8.80;8.00;;;19.10;99.90;;;;;;5020865;28;20455;-81
2023/04/22 10:20:07;;;;;;;7.23;6.53;;;19.10;99.90;;;;;;5020337;28;20478;-80
2023/04/22 10:22:34;;;;;;;7.73;6.90;;;19.10;99.90;;;;;;5020379;28;20436;-80
2023/04/22 10:25:02;;;;;;;9.70;6.93;;;19.20;99.90;;;;;;5027648;28;20547;-80
2023/04/22 10:27:28;;;;;;;7.20;6.50;;;19.20;99.90;;;;;;5026672;28;20539;-81
2023/04/22 10:29:57;;;;;;;14.07;8.00;;;19.30;99.90;;;;;;5024115;28;20555;-80
2023/04/22 10:32:26;;;;;;;8.10;7.40;;;19.30;99.90;;;;;;5025873;28;20459;-81
2023/04/22 10:35:11;;;;;;;8.23;6.93;;;19.40;99.90;;;;;;5024332;28;20476;-81
2023/04/22 10:37:42;;;;;;;7.47;6.77;;;19.40;99.90;;;;;;5031751;28;20428;-79
2023/04/22 10:40:12;;;;;;;7.33;6.60;;;19.50;99.90;;;;;;5035000;28;20464;-80
2023/04/22 10:42:42;;;;;;;7.10;6.43;;;19.50;99.90;;;;;;5038792;28;20447;-79
2023/04/22 10:45:14;;;;;;;9.10;7.17;;;19.50;99.90;;;;;;5037505;28;20523;-80
2023/04/22 10:47:42;;;;;;;8.30;7.53;;;19.60;99.90;;;;;;5031921;28;20498;-81
2023/04/22 10:50:14;;;;;;;12.40;7.20;;;19.70;99.90;;;;;;5026300;28;20474;-79
2023/04/22 10:56:16;;;;;;;7.23;6.40;;;19.70;99.90;;;;;;5029791;28;20434;-81
2023/04/22 10:58:43;;;;;;;6.57;6.00;;;19.80;99.90;;;;;;5025115;28;20522;-80
2023/04/22 11:01:16;;;;;;;7.93;7.20;;;19.90;99.90;;;;;;5023740;28;20452;-80
2023/04/22 11:03:42;;;;;;;7.80;6.40;;;19.90;99.90;;;;;;5023335;28;20507;-82
2023/04/22 11:06:16;;;;;;;9.23;6.93;;;19.80;99.90;;;;;;5024710;28;20551;-82
2023/04/22 11:08:47;;;;;;;11.33;7.60;;;19.70;99.90;;;;;;5023467;28;20563;-80
2023/04/22 11:11:14;;;;;;;7.80;6.50;;;19.90;99.90;;;;;;5029099;28;20477;-79
2023/04/22 11:13:42;;;;;;;7.07;6.00;;;19.90;99.90;;;;;;5036428;28;20448;-81
2023/04/22 11:16:09;;;;;;;8.60;7.50;;;20.10;99.90;;;;;;5026901;28;20478;-79
2023/04/22 11:18:38;;;;;;;8.00;7.17;;;20.00;99.90;;;;;;5027466;28;20470;-80
2023/04/22 11:21:07;;;;;;;6.63;5.67;;;20.10;99.90;;;;;;5028920;28;20934;-80
2023/04/22 11:23:35;;;;;;;8.40;7.03;;;20.10;99.90;;;;;;5031401;28;20516;-79
2023/04/22 11:26:03;;;;;;;7.73;6.33;;;20.10;99.90;;;;;;5025125;28;20586;-79
2023/04/22 11:28:30;;;;;;;8.70;6.33;;;20.10;99.90;;;;;;5023787;28;20478;-79
2023/04/22 11:31:05;;;;;;;7.40;6.70;;;20.10;99.90;;;;;;5024819;28;20534;-82
2023/04/22 11:33:33;;;;;;;9.23;7.20;;;20.20;99.90;;;;;;5024390;28;20465;-79
2023/04/22 11:36:01;;;;;;;10.23;7.20;;;20.20;99.90;;;;;;5023445;28;20447;-80
2023/04/22 11:38:28;;;;;;;9.47;8.00;;;20.30;99.90;;;;;;5023870;28;20494;-82
2023/04/22 11:40:56;;;;;;;7.13;6.43;;;20.30;99.90;;;;;;5024765;28;20452;-82
2023/04/22 11:43:23;;;;;;;8.67;7.80;;;20.40;99.90;;;;;;5030444;28;20451;-80
2023/04/22 11:45:50;;;;;;;7.50;6.80;;;20.50;99.90;;;;;;5034826;28;20485;-80
2023/04/22 11:48:17;;;;;;;8.27;7.03;;;20.60;99.90;;;;;;5036752;28;20507;-80
2023/04/22 11:50:44;;;;;;;8.00;6.03;;;20.50;99.90;;;;;;5027148;28;20452;-81
2023/04/22 11:53:17;;;;;;;9.17;6.70;;;20.80;99.90;;;;;;5025853;28;20452;-80
2023/04/22 11:55:45;;;;;;;8.80;8.00;;;20.70;99.90;;;;;;5024599;28;20805;-81
2023/04/22 11:58:14;;;;;;;7.77;6.43;;;21.00;1.00;;;;;;5025266;28;20451;-81
2023/04/22 12:00:43;;;;;;;7.27;6.13;;;20.70;99.90;;;;;;5035996;28;20443;-80
2023/04/22 12:03:14;;;;;;;7.70;6.90;;;20.60;99.90;;;;;;5039351;28;20477;-80
2023/04/22 12:05:43;;;;;;;6.77;6.07;;;20.70;99.90;;;;;;5040400;28;20444;-80
2023/04/22 12:08:11;;;;;;;11.73;7.90;;;20.80;99.90;;;;;;5038456;28;20456;-80
2023/04/22 12:10:44;;;;;;;8.20;7.50;;;20.90;99.90;;;;;;5037162;28;20961;-81
2023/04/22 12:13:18;;;;;;;9.20;8.50;;;20.90;99.90;;;;;;5039430;28;20424;-81
2023/04/22 12:15:46;;;;;;;8.37;7.00;;;21.00;99.90;;;;;;5026672;28;20536;-79
2023/04/22 12:18:13;;;;;;;10.27;6.77;;;20.90;99.90;;;;;;5030109;28;20531;-80
2023/04/22 12:20:41;;;;;;;12.17;7.70;;;21.00;99.90;;;;;;5027131;28;20456;-82
2023/04/22 12:23:15;;;;;;;9.30;7.43;;;21.00;99.90;;;;;;5026220;28;20450;-81
2023/04/22 12:25:44;;;;;;;10.20;7.53;;;20.90;99.90;;;;;;5031242;28;20471;-80
2023/04/22 12:28:11;;;;;;;7.27;6.60;;;21.10;99.90;;;;;;5038872;28;20459;-82
2023/04/22 12:30:38;;;;;;;7.87;7.23;;;21.20;99.90;;;;;;5029588;28;20448;-80
2023/04/22 12:33:05;;;;;;;11.13;6.87;;;21.20;99.90;;;;;;5028245;28;20483;-81
2023/04/22 12:35:33;;;;;;;7.67;6.90;;;21.20;99.90;;;;;;5027637;28;20530;-81
2023/04/22 12:38:00;;;;;;;9.73;7.20;;;21.20;99.90;;;;;;5028326;28;20448;-84
2023/04/22 12:40:27;;;;;;;9.23;7.10;;;21.20;99.90;;;;;;5029903;28;20448;-83
2023/04/22 12:42:55;;;;;;;7.70;6.70;;;21.20;99.90;;;;;;5029310;28;20479;-83
2023/04/22 12:45:23;;;;;;;8.57;7.77;;;21.20;99.90;;;;;;5026722;28;20973;-83
2023/04/22 12:47:52;;;;;;;7.47;6.70;;;21.10;99.90;;;;;;5026924;28;20893;-83
2023/04/22 12:50:19;;;;;;;9.10;7.57;;;21.20;99.90;;;;;;5029554;28;20458;-83